sensor_id;sensor_type;location;lat;lon;timestamp;P1;durP1;ratioP1;P2;durP2;ratioP2
11548;SDS011;61444;59.472;18.306;2023-12-29T00:01:00;2.40;;;1.60;;
11548;SDS011;61444;59.472;18.306;2023-12-29T00:03:09;2.13;;;1.53;;
11548;SDS011;61444;59.472;18.306;2023-12-29T00:05:19;3.77;;;2.03;;
11548;SDS011;61444;59.472;18.306;2023-12-29T00:07:29;3.63;;;1.97;;
11548;SDS011;61444;59.472;18.306;2023-12-29T00:09:38;2.97;;;2.20;;
11548;SDS011;61444;59.472;18.306;2023-12-29T00:11:49;2.97;;;2.20;;
11548;SDS011;61444;59.472;18.306;2023-12-29T00:13:56;3.80;;;1.90;;
11548;SDS011;61444;59.472;18.306;2023-12-29T00:16:06;4.13;;;2.40;;
11548;SDS011;61444;59.472;18.306;2023-12-29T00:18:15;3.70;;;2.30;;
11548;SDS011;61444;59.472;18.306;2023-12-29T00:20:24;3.43;;;2.23;;
11548;SDS011;61444;59.472;18.306;2023-12-29T00:22:48;5.37;;;2.40;;
11548;SDS011;61444;59.472;18.306;2023-12-29T00:24:57;5.03;;;2.07;;
11548;SDS011;61444;59.472;18.306;2023-12-29T00:27:06;3.80;;;2.60;;
11548;SDS011;61444;59.472;18.306;2023-12-29T00:29:15;3.83;;;2.53;;
11548;SDS011;61444;59.472;18.306;2023-12-29T00:31:24;5.30;;;2.40;;
11548;SDS011;61444;59.472;18.306;2023-12-29T00:33:34;4.10;;;2.23;;
11548;SDS011;61444;59.472;18.306;2023-12-29T00:35:44;3.03;;;2.23;;
11548;SDS011;61444;59.472;18.306;2023-12-29T00:37:56;4.03;;;1.90;;
11548;SDS011;61444;59.472;18.306;2023-12-29T00:40:06;3.63;;;2.30;;
11548;SDS011;61444;59.472;18.306;2023-12-29T00:42:16;4.40;;;2.33;;
11548;SDS011;61444;59.472;18.306;2023-12-29T00:44:25;3.70;;;2.23;;
11548;SDS011;61444;59.472;18.306;2023-12-29T00:46:34;3.93;;;2.40;;
11548;SDS011;61444;59.472;18.306;2023-12-29T00:48:43;5.73;;;2.40;;
11548;SDS011;61444;59.472;18.306;2023-12-29T00:50:51;3.57;;;2.60;;
11548;SDS011;61444;59.472;18.306;2023-12-29T00:53:02;5.33;;;2.80;;
11548;SDS011;61444;59.472;18.306;2023-12-29T00:55:11;3.47;;;2.50;;
11548;SDS011;61444;59.472;18.306;2023-12-29T00:57:20;3.67;;;2.47;;
11548;SDS011;61444;59.472;18.306;2023-12-29T00:59:29;5.17;;;2.83;;
11548;SDS011;61444;59.472;18.306;2023-12-29T01:01:39;4.10;;;2.53;;
11548;SDS011;61444;59.472;18.306;2023-12-29T01:03:49;3.70;;;2.70;;
11548;SDS011;61444;59.472;18.306;2023-12-29T01:06:01;3.40;;;2.33;;
11548;SDS011;61444;59.472;18.306;2023-12-29T01:08:12;2.97;;;2.07;;
11548;SDS011;61444;59.472;18.306;2023-12-29T01:10:21;2.40;;;1.57;;
11548;SDS011;61444;59.472;18.306;2023-12-29T01:12:30;3.33;;;1.70;;
11548;SDS011;61444;59.472;18.306;2023-12-29T01:14:39;2.47;;;1.63;;
11548;SDS011;61444;59.472;18.306;2023-12-29T01:16:48;4.00;;;1.50;;
11548;SDS011;61444;59.472;18.306;2023-12-29T01:18:56;3.03;;;1.60;;
11548;SDS011;61444;59.472;18.306;2023-12-29T01:21:05;1.77;;;1.53;;
11548;SDS011;61444;59.472;18.306;2023-12-29T01:23:16;2.93;;;1.90;;
11548;SDS011;61444;59.472;18.306;2023-12-29T01:25:25;1.77;;;1.57;;
11548;SDS011;61444;59.472;18.306;2023-12-29T01:27:34;3.23;;;1.80;;
11548;SDS011;61444;59.472;18.306;2023-12-29T01:29:43;1.97;;;1.50;;
11548;SDS011;61444;59.472;18.306;2023-12-29T01:31:52;4.03;;;1.47;;
11548;SDS011;61444;59.472;18.306;2023-12-29T01:34:01;3.13;;;1.40;;
11548;SDS011;61444;59.472;18.306;2023-12-29T01:36:16;2.60;;;1.53;;
11548;SDS011;61444;59.472;18.306;2023-12-29T01:38:32;2.20;;;1.30;;
11548;SDS011;61444;59.472;18.306;2023-12-29T01:40:44;1.73;;;1.30;;
11548;SDS011;61444;59.472;18.306;2023-12-29T01:42:54;2.87;;;1.53;;
11548;SDS011;61444;59.472;18.306;2023-12-29T01:45:03;2.67;;;1.40;;
11548;SDS011;61444;59.472;18.306;2023-12-29T01:47:13;2.10;;;1.37;;
11548;SDS011;61444;59.472;18.306;2023-12-29T01:49:23;2.63;;;1.50;;
11548;SDS011;61444;59.472;18.306;2023-12-29T01:51:32;2.40;;;1.33;;
11548;SDS011;61444;59.472;18.306;2023-12-29T01:53:42;2.43;;;1.50;;
11548;SDS011;61444;59.472;18.306;2023-12-29T01:55:54;2.93;;;1.70;;
11548;SDS011;61444;59.472;18.306;2023-12-29T01:58:04;3.47;;;1.73;;
11548;SDS011;61444;59.472;18.306;2023-12-29T02:00:14;3.27;;;1.80;;
11548;SDS011;61444;59.472;18.306;2023-12-29T02:02:24;3.00;;;2.13;;
11548;SDS011;61444;59.472;18.306;2023-12-29T02:04:34;2.77;;;1.80;;
11548;SDS011;61444;59.472;18.306;2023-12-29T02:06:44;2.27;;;1.60;;
11548;SDS011;61444;59.472;18.306;2023-12-29T02:08:55;3.37;;;1.63;;
11548;SDS011;61444;59.472;18.306;2023-12-29T02:11:03;2.17;;;1.40;;
11548;SDS011;61444;59.472;18.306;2023-12-29T02:13:12;3.17;;;1.67;;
11548;SDS011;61444;59.472;18.306;2023-12-29T02:15:22;2.97;;;1.57;;
11548;SDS011;61444;59.472;18.306;2023-12-29T02:17:31;2.60;;;1.60;;
11548;SDS011;61444;59.472;18.306;2023-12-29T02:19:40;3.03;;;1.60;;
11548;SDS011;61444;59.472;18.306;2023-12-29T02:21:51;2.97;;;1.57;;
11548;SDS011;61444;59.472;18.306;2023-12-29T02:24:03;3.40;;;1.63;;
11548;SDS011;61444;59.472;18.306;2023-12-29T02:26:13;4.37;;;1.60;;
11548;SDS011;61444;59.472;18.306;2023-12-29T02:28:25;1.97;;;1.40;;
11548;SDS011;61444;59.472;18.306;2023-12-29T02:30:37;3.07;;;1.90;;
11548;SDS011;61444;59.472;18.306;2023-12-29T02:32:47;5.10;;;1.93;;
11548;SDS011;61444;59.472;18.306;2023-12-29T02:34:56;3.90;;;1.93;;
11548;SDS011;61444;59.472;18.306;2023-12-29T02:37:05;4.33;;;1.80;;
11548;SDS011;61444;59.472;18.306;2023-12-29T02:39:16;2.70;;;1.80;;
11548;SDS011;61444;59.472;18.306;2023-12-29T02:41:28;3.20;;;1.93;;
11548;SDS011;61444;59.472;18.306;2023-12-29T02:43:39;4.57;;;2.53;;
11548;SDS011;61444;59.472;18.306;2023-12-29T02:45:48;5.63;;;2.90;;
11548;SDS011;61444;59.472;18.306;2023-12-29T02:47:57;3.90;;;2.70;;
11548;SDS011;61444;59.472;18.306;2023-12-29T02:50:07;3.27;;;2.23;;
11548;SDS011;61444;59.472;18.306;2023-12-29T02:52:17;5.03;;;3.10;;
11548;SDS011;61444;59.472;18.306;2023-12-29T02:54:26;6.90;;;3.13;;
11548;SDS011;61444;59.472;18.306;2023-12-29T02:56:38;5.73;;;2.80;;
11548;SDS011;61444;59.472;18.306;2023-12-29T02:58:47;4.87;;;2.53;;
11548;SDS011;61444;59.472;18.306;2023-12-29T03:00:58;5.43;;;2.83;;
11548;SDS011;61444;59.472;18.306;2023-12-29T03:03:07;4.30;;;2.70;;
11548;SDS011;61444;59.472;18.306;2023-12-29T03:05:17;5.43;;;2.40;;
11548;SDS011;61444;59.472;18.306;2023-12-29T03:07:25;5.67;;;2.53;;
11548;SDS011;61444;59.472;18.306;2023-12-29T03:09:34;4.67;;;2.70;;
11548;SDS011;61444;59.472;18.306;2023-12-29T03:11:47;4.73;;;2.57;;
11548;SDS011;61444;59.472;18.306;2023-12-29T03:13:56;6.17;;;3.27;;
11548;SDS011;61444;59.472;18.306;2023-12-29T03:16:05;6.03;;;2.50;;
11548;SDS011;61444;59.472;18.306;2023-12-29T03:18:14;5.00;;;2.13;;
11548;SDS011;61444;59.472;18.306;2023-12-29T03:20:23;4.43;;;2.63;;
11548;SDS011;61444;59.472;18.306;2023-12-29T03:22:32;4.67;;;2.20;;
11548;SDS011;61444;59.472;18.306;2023-12-29T03:24:42;2.80;;;1.77;;
11548;SDS011;61444;59.472;18.306;2023-12-29T03:26:53;5.50;;;2.30;;
11548;SDS011;61444;59.472;18.306;2023-12-29T03:29:02;6.30;;;2.27;;
11548;SDS011;61444;59.472;18.306;2023-12-29T03:31:11;6.87;;;2.20;;
11548;SDS011;61444;59.472;18.306;2023-12-29T03:33:21;4.27;;;2.13;;
11548;SDS011;61444;59.472;18.306;2023-12-29T03:35:30;4.63;;;2.10;;
11548;SDS011;61444;59.472;18.306;2023-12-29T03:37:39;6.50;;;2.40;;
11548;SDS011;61444;59.472;18.306;2023-12-29T03:39:49;5.13;;;2.20;;
11548;SDS011;61444;59.472;18.306;2023-12-29T03:41:59;7.80;;;2.80;;
11548;SDS011;61444;59.472;18.306;2023-12-29T03:44:08;5.97;;;2.70;;
11548;SDS011;61444;59.472;18.306;2023-12-29T03:46:18;6.80;;;2.40;;
11548;SDS011;61444;59.472;18.306;2023-12-29T03:48:28;5.33;;;2.50;;
11548;SDS011;61444;59.472;18.306;2023-12-29T03:50:37;6.00;;;2.73;;
11548;SDS011;61444;59.472;18.306;2023-12-29T03:52:46;8.00;;;2.70;;
11548;SDS011;61444;59.472;18.306;2023-12-29T03:54:55;9.73;;;3.10;;
11548;SDS011;61444;59.472;18.306;2023-12-29T03:57:07;8.07;;;3.43;;
11548;SDS011;61444;59.472;18.306;2023-12-29T03:59:18;8.33;;;2.67;;
11548;SDS011;61444;59.472;18.306;2023-12-29T04:01:27;8.90;;;2.73;;
11548;SDS011;61444;59.472;18.306;2023-12-29T04:03:37;6.37;;;3.17;;
11548;SDS011;61444;59.472;18.306;2023-12-29T04:05:45;5.73;;;2.63;;
11548;SDS011;61444;59.472;18.306;2023-12-29T04:07:54;6.63;;;2.63;;
11548;SDS011;61444;59.472;18.306;2023-12-29T04:10:04;7.37;;;2.73;;
11548;SDS011;61444;59.472;18.306;2023-12-29T04:12:14;9.00;;;2.80;;
11548;SDS011;61444;59.472;18.306;2023-12-29T04:14:23;10.73;;;2.80;;
11548;SDS011;61444;59.472;18.306;2023-12-29T04:16:33;11.47;;;3.07;;
11548;SDS011;61444;59.472;18.306;2023-12-29T04:18:41;9.67;;;3.17;;
11548;SDS011;61444;59.472;18.306;2023-12-29T04:20:51;12.23;;;3.03;;
11548;SDS011;61444;59.472;18.306;2023-12-29T04:23:02;7.33;;;2.40;;
11548;SDS011;61444;59.472;18.306;2023-12-29T04:25:12;7.10;;;3.03;;
11548;SDS011;61444;59.472;18.306;2023-12-29T04:27:22;5.13;;;2.10;;
11548;SDS011;61444;59.472;18.306;2023-12-29T04:29:31;9.23;;;2.97;;
11548;SDS011;61444;59.472;18.306;2023-12-29T04:31:41;9.57;;;2.60;;
11548;SDS011;61444;59.472;18.306;2023-12-29T04:33:50;13.57;;;2.70;;
11548;SDS011;61444;59.472;18.306;2023-12-29T04:36:00;10.83;;;2.53;;
11548;SDS011;61444;59.472;18.306;2023-12-29T04:38:10;6.87;;;2.20;;
11548;SDS011;61444;59.472;18.306;2023-12-29T04:40:19;12.60;;;2.77;;
11548;SDS011;61444;59.472;18.306;2023-12-29T04:42:30;10.23;;;2.40;;
11548;SDS011;61444;59.472;18.306;2023-12-29T04:44:41;4.80;;;1.80;;
11548;SDS011;61444;59.472;18.306;2023-12-29T04:46:50;5.13;;;1.90;;
11548;SDS011;61444;59.472;18.306;2023-12-29T04:48:59;3.40;;;1.60;;
11548;SDS011;61444;59.472;18.306;2023-12-29T04:51:08;2.63;;;1.60;;
11548;SDS011;61444;59.472;18.306;2023-12-29T04:53:17;2.73;;;1.33;;
11548;SDS011;61444;59.472;18.306;2023-12-29T04:55:26;2.97;;;1.57;;
11548;SDS011;61444;59.472;18.306;2023-12-29T04:57:38;4.20;;;1.40;;
11548;SDS011;61444;59.472;18.306;2023-12-29T04:59:51;2.73;;;1.30;;
11548;SDS011;61444;59.472;18.306;2023-12-29T05:02:02;3.13;;;1.23;;
11548;SDS011;61444;59.472;18.306;2023-12-29T05:04:12;4.00;;;1.30;;
11548;SDS011;61444;59.472;18.306;2023-12-29T05:06:23;2.13;;;1.30;;
11548;SDS011;61444;59.472;18.306;2023-12-29T05:08:33;1.60;;;1.00;;
11548;SDS011;61444;59.472;18.306;2023-12-29T05:10:42;2.37;;;1.17;;
11548;SDS011;61444;59.472;18.306;2023-12-29T05:12:53;2.13;;;1.20;;
11548;SDS011;61444;59.472;18.306;2023-12-29T05:15:03;3.57;;;1.10;;
11548;SDS011;61444;59.472;18.306;2023-12-29T05:17:12;1.90;;;1.00;;
11548;SDS011;61444;59.472;18.306;2023-12-29T05:19:22;1.73;;;1.00;;
11548;SDS011;61444;59.472;18.306;2023-12-29T05:21:31;1.87;;;0.80;;
11548;SDS011;61444;59.472;18.306;2023-12-29T05:23:40;1.70;;;0.87;;
11548;SDS011;61444;59.472;18.306;2023-12-29T05:25:48;3.63;;;1.07;;
11548;SDS011;61444;59.472;18.306;2023-12-29T05:27:59;2.87;;;0.83;;
11548;SDS011;61444;59.472;18.306;2023-12-29T05:30:09;1.53;;;0.70;;
11548;SDS011;61444;59.472;18.306;2023-12-29T05:32:20;2.00;;;0.70;;
11548;SDS011;61444;59.472;18.306;2023-12-29T05:34:29;4.13;;;1.00;;
11548;SDS011;61444;59.472;18.306;2023-12-29T05:36:39;1.37;;;0.70;;
11548;SDS011;61444;59.472;18.306;2023-12-29T05:38:49;1.23;;;0.70;;
11548;SDS011;61444;59.472;18.306;2023-12-29T05:40:58;1.37;;;0.90;;
11548;SDS011;61444;59.472;18.306;2023-12-29T05:43:10;1.13;;;0.50;;
11548;SDS011;61444;59.472;18.306;2023-12-29T05:45:19;1.17;;;0.70;;
11548;SDS011;61444;59.472;18.306;2023-12-29T05:47:29;1.80;;;0.90;;
11548;SDS011;61444;59.472;18.306;2023-12-29T05:49:41;1.27;;;0.73;;
11548;SDS011;61444;59.472;18.306;2023-12-29T05:51:50;2.47;;;0.60;;
11548;SDS011;61444;59.472;18.306;2023-12-29T05:53:59;2.03;;;0.90;;
11548;SDS011;61444;59.472;18.306;2023-12-29T05:56:09;1.60;;;0.63;;
11548;SDS011;61444;59.472;18.306;2023-12-29T05:58:19;1.30;;;0.67;;
11548;SDS011;61444;59.472;18.306;2023-12-29T06:00:30;1.13;;;0.57;;
11548;SDS011;61444;59.472;18.306;2023-12-29T06:02:40;1.40;;;0.80;;
11548;SDS011;61444;59.472;18.306;2023-12-29T06:04:49;1.10;;;0.70;;
11548;SDS011;61444;59.472;18.306;2023-12-29T06:06:58;1.17;;;0.60;;
11548;SDS011;61444;59.472;18.306;2023-12-29T18:56:43;37.27;;;10.00;;
11548;SDS011;61444;59.472;18.306;2023-12-29T18:58:52;40.27;;;10.87;;
11548;SDS011;61444;59.472;18.306;2023-12-29T19:01:01;40.80;;;10.57;;
11548;SDS011;61444;59.472;18.306;2023-12-29T19:03:12;39.50;;;10.20;;
11548;SDS011;61444;59.472;18.306;2023-12-29T19:05:21;25.23;;;9.50;;
11548;SDS011;61444;59.472;18.306;2023-12-29T19:07:30;22.93;;;8.47;;
11548;SDS011;61444;59.472;18.306;2023-12-29T19:09:39;21.00;;;8.80;;
11548;SDS011;61444;59.472;18.306;2023-12-29T19:11:52;22.50;;;9.30;;
11548;SDS011;61444;59.472;18.306;2023-12-29T19:14:01;35.80;;;10.40;;
11548;SDS011;61444;59.472;18.306;2023-12-29T19:16:18;31.63;;;10.77;;
11548;SDS011;61444;59.472;18.306;2023-12-29T19:18:27;36.73;;;12.03;;
11548;SDS011;61444;59.472;18.306;2023-12-29T19:20:36;53.37;;;11.77;;
11548;SDS011;61444;59.472;18.306;2023-12-29T19:22:46;35.20;;;12.10;;
11548;SDS011;61444;59.472;18.306;2023-12-29T19:24:54;35.83;;;12.33;;
11548;SDS011;61444;59.472;18.306;2023-12-29T19:27:06;37.43;;;11.50;;
11548;SDS011;61444;59.472;18.306;2023-12-29T19:29:16;31.23;;;11.37;;
11548;SDS011;61444;59.472;18.306;2023-12-29T19:31:26;35.57;;;11.83;;
11548;SDS011;61444;59.472;18.306;2023-12-29T19:33:33;37.50;;;12.57;;
11548;SDS011;61444;59.472;18.306;2023-12-29T19:35:44;30.60;;;11.87;;
11548;SDS011;61444;59.472;18.306;2023-12-29T19:37:52;47.77;;;12.70;;
11548;SDS011;61444;59.472;18.306;2023-12-29T19:40:01;34.63;;;11.90;;
11548;SDS011;61444;59.472;18.306;2023-12-29T19:42:14;20.50;;;8.33;;
11548;SDS011;61444;59.472;18.306;2023-12-29T19:44:23;34.37;;;11.40;;
11548;SDS011;61444;59.472;18.306;2023-12-29T19:46:32;48.90;;;13.53;;
11548;SDS011;61444;59.472;18.306;2023-12-29T19:48:41;35.67;;;10.50;;
11548;SDS011;61444;59.472;18.306;2023-12-29T19:50:50;31.23;;;12.00;;
11548;SDS011;61444;59.472;18.306;2023-12-29T19:52:59;30.37;;;9.93;;
11548;SDS011;61444;59.472;18.306;2023-12-29T19:55:10;24.37;;;7.97;;
11548;SDS011;61444;59.472;18.306;2023-12-29T19:57:21;34.33;;;8.53;;
11548;SDS011;61444;59.472;18.306;2023-12-29T19:59:30;22.10;;;8.23;;
11548;SDS011;61444;59.472;18.306;2023-12-29T20:01:43;28.50;;;8.33;;
11548;SDS011;61444;59.472;18.306;2023-12-29T20:03:54;31.63;;;8.80;;
11548;SDS011;61444;59.472;18.306;2023-12-29T20:06:03;32.23;;;9.23;;
11548;SDS011;61444;59.472;18.306;2023-12-29T20:08:12;22.33;;;8.00;;
11548;SDS011;61444;59.472;18.306;2023-12-29T20:10:21;32.83;;;9.00;;
11548;SDS011;61444;59.472;18.306;2023-12-29T20:12:32;41.27;;;8.40;;
11548;SDS011;61444;59.472;18.306;2023-12-29T20:14:41;25.10;;;8.27;;
11548;SDS011;61444;59.472;18.306;2023-12-29T20:16:51;38.77;;;8.23;;
11548;SDS011;61444;59.472;18.306;2023-12-29T20:19:00;24.17;;;7.70;;
11548;SDS011;61444;59.472;18.306;2023-12-29T20:21:08;37.63;;;8.90;;
11548;SDS011;61444;59.472;18.306;2023-12-29T20:23:17;30.80;;;8.57;;
11548;SDS011;61444;59.472;18.306;2023-12-29T20:25:26;32.87;;;7.53;;
11548;SDS011;61444;59.472;18.306;2023-12-29T20:27:38;29.47;;;8.30;;
11548;SDS011;61444;59.472;18.306;2023-12-29T20:29:47;33.43;;;7.10;;
11548;SDS011;61444;59.472;18.306;2023-12-29T20:31:57;43.17;;;10.17;;
11548;SDS011;61444;59.472;18.306;2023-12-29T20:34:06;27.83;;;7.57;;
11548;SDS011;61444;59.472;18.306;2023-12-29T20:36:15;33.53;;;7.43;;
11548;SDS011;61444;59.472;18.306;2023-12-29T20:38:23;29.60;;;7.17;;
11548;SDS011;61444;59.472;18.306;2023-12-29T20:40:32;30.20;;;7.80;;
11548;SDS011;61444;59.472;18.306;2023-12-29T20:42:42;22.63;;;6.47;;
11548;SDS011;61444;59.472;18.306;2023-12-29T20:44:52;23.20;;;5.93;;
11548;SDS011;61444;59.472;18.306;2023-12-29T20:47:03;29.60;;;6.67;;
11548;SDS011;61444;59.472;18.306;2023-12-29T20:49:13;31.67;;;7.17;;
11548;SDS011;61444;59.472;18.306;2023-12-29T20:51:22;19.53;;;6.53;;
11548;SDS011;61444;59.472;18.306;2023-12-29T20:53:31;24.37;;;6.93;;
11548;SDS011;61444;59.472;18.306;2023-12-29T20:55:40;29.40;;;6.80;;
11548;SDS011;61444;59.472;18.306;2023-12-29T20:57:50;26.47;;;6.87;;
11548;SDS011;61444;59.472;18.306;2023-12-29T21:00:00;27.93;;;6.67;;
11548;SDS011;61444;59.472;18.306;2023-12-29T21:02:09;31.37;;;6.63;;
11548;SDS011;61444;59.472;18.306;2023-12-29T21:04:19;23.33;;;5.83;;
11548;SDS011;61444;59.472;18.306;2023-12-29T21:06:29;25.20;;;6.53;;
11548;SDS011;61444;59.472;18.306;2023-12-29T21:08:39;21.27;;;6.50;;
11548;SDS011;61444;59.472;18.306;2023-12-29T21:10:48;24.87;;;6.00;;
11548;SDS011;61444;59.472;18.306;2023-12-29T21:12:59;19.90;;;5.07;;
11548;SDS011;61444;59.472;18.306;2023-12-29T21:15:07;20.50;;;5.47;;
11548;SDS011;61444;59.472;18.306;2023-12-29T21:17:17;17.40;;;5.93;;
11548;SDS011;61444;59.472;18.306;2023-12-29T21:19:26;23.10;;;6.20;;
11548;SDS011;61444;59.472;18.306;2023-12-29T21:21:36;25.83;;;6.53;;
11548;SDS011;61444;59.472;18.306;2023-12-29T21:23:45;33.93;;;8.03;;
11548;SDS011;61444;59.472;18.306;2023-12-29T21:25:54;29.63;;;7.87;;
11548;SDS011;61444;59.472;18.306;2023-12-29T21:28:05;32.60;;;8.10;;
11548;SDS011;61444;59.472;18.306;2023-12-29T21:30:16;26.60;;;8.30;;
11548;SDS011;61444;59.472;18.306;2023-12-29T21:32:25;31.83;;;9.10;;
11548;SDS011;61444;59.472;18.306;2023-12-29T21:34:35;32.17;;;9.23;;
11548;SDS011;61444;59.472;18.306;2023-12-29T21:36:43;18.90;;;6.40;;
11548;SDS011;61444;59.472;18.306;2023-12-29T21:38:52;21.40;;;5.27;;
11548;SDS011;61444;59.472;18.306;2023-12-29T21:41:02;18.97;;;5.93;;
11548;SDS011;61444;59.472;18.306;2023-12-29T21:43:13;23.53;;;6.10;;
11548;SDS011;61444;59.472;18.306;2023-12-29T21:45:21;18.03;;;5.23;;
11548;SDS011;61444;59.472;18.306;2023-12-29T21:47:30;14.77;;;5.90;;
11548;SDS011;61444;59.472;18.306;2023-12-29T21:49:39;12.03;;;4.40;;
11548;SDS011;61444;59.472;18.306;2023-12-29T21:51:49;22.50;;;5.63;;
11548;SDS011;61444;59.472;18.306;2023-12-29T21:53:59;18.77;;;5.23;;
11548;SDS011;61444;59.472;18.306;2023-12-29T21:56:08;13.17;;;5.27;;
11548;SDS011;61444;59.472;18.306;2023-12-29T21:58:19;12.00;;;4.97;;
11548;SDS011;61444;59.472;18.306;2023-12-29T22:00:28;11.97;;;4.17;;
11548;SDS011;61444;59.472;18.306;2023-12-29T22:02:38;14.40;;;4.37;;
11548;SDS011;61444;59.472;18.306;2023-12-29T22:04:47;15.13;;;4.87;;
11548;SDS011;61444;59.472;18.306;2023-12-29T22:06:56;10.00;;;3.80;;
11548;SDS011;61444;59.472;18.306;2023-12-29T22:09:05;10.30;;;4.47;;
11548;SDS011;61444;59.472;18.306;2023-12-29T22:11:12;11.70;;;4.10;;
11548;SDS011;61444;59.472;18.306;2023-12-29T22:13:23;10.27;;;3.17;;
11548;SDS011;61444;59.472;18.306;2023-12-29T22:15:32;14.33;;;4.10;;
11548;SDS011;61444;59.472;18.306;2023-12-29T22:17:41;12.70;;;4.40;;
11548;SDS011;61444;59.472;18.306;2023-12-29T22:19:50;10.60;;;3.63;;
11548;SDS011;61444;59.472;18.306;2023-12-29T22:21:58;9.60;;;3.30;;
11548;SDS011;61444;59.472;18.306;2023-12-29T22:24:07;7.70;;;3.43;;
11548;SDS011;61444;59.472;18.306;2023-12-29T22:26:16;11.50;;;3.80;;
11548;SDS011;61444;59.472;18.306;2023-12-29T22:28:28;9.93;;;3.60;;
11548;SDS011;61444;59.472;18.306;2023-12-29T22:30:37;10.10;;;3.63;;
11548;SDS011;61444;59.472;18.306;2023-12-29T22:32:46;8.80;;;3.20;;
11548;SDS011;61444;59.472;18.306;2023-12-29T22:34:56;8.20;;;2.87;;
11548;SDS011;61444;59.472;18.306;2023-12-29T22:37:06;6.60;;;3.90;;
11548;SDS011;61444;59.472;18.306;2023-12-29T22:39:15;9.97;;;3.90;;
11548;SDS011;61444;59.472;18.306;2023-12-29T22:41:24;11.33;;;4.43;;
11548;SDS011;61444;59.472;18.306;2023-12-29T22:43:34;9.40;;;3.60;;
11548;SDS011;61444;59.472;18.306;2023-12-29T22:45:43;9.40;;;3.53;;
11548;SDS011;61444;59.472;18.306;2023-12-29T22:47:52;9.67;;;4.00;;
11548;SDS011;61444;59.472;18.306;2023-12-29T22:50:01;9.60;;;4.27;;
11548;SDS011;61444;59.472;18.306;2023-12-29T22:52:11;5.43;;;2.90;;
11548;SDS011;61444;59.472;18.306;2023-12-29T22:54:21;6.80;;;3.20;;
11548;SDS011;61444;59.472;18.306;2023-12-29T22:56:30;8.30;;;3.40;;
11548;SDS011;61444;59.472;18.306;2023-12-29T22:58:39;9.87;;;3.70;;
11548;SDS011;61444;59.472;18.306;2023-12-29T23:00:48;9.87;;;4.10;;
11548;SDS011;61444;59.472;18.306;2023-12-29T23:02:58;6.80;;;3.70;;
11548;SDS011;61444;59.472;18.306;2023-12-29T23:05:08;14.77;;;4.37;;
11548;SDS011;61444;59.472;18.306;2023-12-29T23:07:17;12.57;;;4.23;;
11548;SDS011;61444;59.472;18.306;2023-12-29T23:09:27;4.90;;;2.10;;
11548;SDS011;61444;59.472;18.306;2023-12-29T23:11:35;10.33;;;3.03;;
11548;SDS011;61444;59.472;18.306;2023-12-29T23:13:51;8.40;;;2.70;;
11548;SDS011;61444;59.472;18.306;2023-12-29T23:16:02;7.67;;;2.63;;
11548;SDS011;61444;59.472;18.306;2023-12-29T23:18:11;7.80;;;2.50;;
11548;SDS011;61444;59.472;18.306;2023-12-29T23:20:20;8.30;;;2.90;;
11548;SDS011;61444;59.472;18.306;2023-12-29T23:22:28;7.23;;;2.90;;
11548;SDS011;61444;59.472;18.306;2023-12-29T23:24:36;7.93;;;3.00;;
11548;SDS011;61444;59.472;18.306;2023-12-29T23:26:45;5.83;;;2.47;;
11548;SDS011;61444;59.472;18.306;2023-12-29T23:28:55;6.43;;;2.83;;
11548;SDS011;61444;59.472;18.306;2023-12-29T23:31:06;9.30;;;3.20;;
11548;SDS011;61444;59.472;18.306;2023-12-29T23:33:16;6.33;;;2.80;;
11548;SDS011;61444;59.472;18.306;2023-12-29T23:35:24;6.07;;;3.07;;
11548;SDS011;61444;59.472;18.306;2023-12-29T23:37:33;8.33;;;3.60;;
11548;SDS011;61444;59.472;18.306;2023-12-29T23:39:42;8.70;;;3.40;;
11548;SDS011;61444;59.472;18.306;2023-12-29T23:41:51;7.27;;;3.20;;
11548;SDS011;61444;59.472;18.306;2023-12-29T23:44:01;4.67;;;2.10;;
11548;SDS011;61444;59.472;18.306;2023-12-29T23:46:09;7.37;;;2.30;;
11548;SDS011;61444;59.472;18.306;2023-12-29T23:48:18;4.20;;;2.10;;
11548;SDS011;61444;59.472;18.306;2023-12-29T23:50:28;6.87;;;1.60;;
11548;SDS011;61444;59.472;18.306;2023-12-29T23:52:37;3.70;;;1.47;;
11548;SDS011;61444;59.472;18.306;2023-12-29T23:54:46;5.13;;;1.57;;
11548;SDS011;61444;59.472;18.306;2023-12-29T23:56:56;6.20;;;1.73;;
11548;SDS011;61444;59.472;18.306;2023-12-29T23:59:08;3.13;;;1.43;;
